createdAt,value
2024-02-02T00:00:09.731Z,99648.66
2024-02-02T00:02:40.432Z,99648.28
2024-02-02T00:05:10.336Z,99650.78
2024-02-02T00:07:38.926Z,99651.78
2024-02-02T00:10:08.960Z,99663.19
2024-02-02T00:12:37.994Z,99672.06
2024-02-02T00:15:07.512Z,99656.50
2024-02-02T00:17:36.164Z,99657.28
2024-02-02T00:20:07.366Z,99654.38
2024-02-02T00:22:35.941Z,99648.88
2024-02-02T00:25:04.900Z,99645.50
2024-02-02T00:27:33.437Z,99642.56
2024-02-02T00:30:02.168Z,99650.31
2024-02-02T00:32:30.738Z,99654.25
2024-02-02T00:34:59.241Z,99656.56
2024-02-02T00:37:29.119Z,99656.56
2024-02-02T00:39:57.570Z,99659.03
2024-02-02T00:42:26.129Z,99656.88
2024-02-02T00:44:54.687Z,99653.38
2024-02-02T00:47:23.199Z,99654.22
2024-02-02T00:49:51.773Z,99648.16
2024-02-02T00:52:20.394Z,99640.22
2024-02-02T00:54:50.301Z,99625.50
2024-02-02T00:57:18.831Z,99628.28
2024-02-02T00:59:49.188Z,99622.56
2024-02-02T01:02:17.826Z,99629.91
2024-02-02T01:04:46.673Z,99623.13
2024-02-02T01:07:17.907Z,99620.91
2024-02-02T01:09:47.439Z,99605.38
2024-02-02T01:12:17.742Z,99610.59
2024-02-02T01:14:49.333Z,99612.38
2024-02-02T01:17:18.042Z,99624.44
2024-02-02T01:19:46.634Z,99620.00
2024-02-02T01:22:15.423Z,99623.84
2024-02-02T01:24:43.929Z,99625.31
2024-02-02T01:27:12.947Z,99643.09
2024-02-02T01:29:42.859Z,99647.16
2024-02-02T01:32:11.392Z,99656.25
2024-02-02T01:34:40.035Z,99649.63
2024-02-02T01:37:08.581Z,99664.72
2024-02-02T01:39:37.136Z,99667.16
2024-02-02T01:42:06.204Z,99674.38
2024-02-02T01:44:34.681Z,99645.88
2024-02-02T01:47:05.544Z,99635.00
2024-02-02T01:49:35.595Z,99636.03
2024-02-02T01:52:05.826Z,99635.00
2024-02-02T01:54:34.769Z,99643.38
2024-02-02T01:57:03.474Z,99633.16
2024-02-02T01:59:32.487Z,99623.41
2024-02-02T02:02:01.211Z,99610.06
2024-02-02T02:04:31.257Z,99612.44
2024-02-02T02:06:59.874Z,99618.16
2024-02-02T02:09:28.750Z,99617.97
2024-02-02T02:11:58.261Z,99624.97
2024-02-02T02:14:29.186Z,99625.59
2024-02-02T02:16:57.774Z,99613.75
2024-02-02T02:19:26.466Z,99604.91
2024-02-02T02:21:56.468Z,99608.56
2024-02-02T02:24:24.996Z,99605.16
2024-02-02T02:26:53.630Z,99605.00
2024-02-02T02:29:22.456Z,99597.38
2024-02-02T02:31:55.485Z,99589.72
2024-02-02T02:34:28.023Z,99582.09
2024-02-02T02:36:58.122Z,99591.19
2024-02-02T02:39:26.553Z,99595.13
2024-02-02T02:41:55.043Z,99595.13
2024-02-02T02:44:23.557Z,99588.34
2024-02-02T02:46:52.952Z,99591.25
2024-02-02T02:49:21.885Z,99592.19
2024-02-02T02:51:50.635Z,99587.56
2024-02-02T02:54:20.546Z,99577.44
2024-02-02T02:56:49.060Z,99555.53
2024-02-02T02:59:19.453Z,99554.81
2024-02-02T03:01:48.433Z,99549.34
2024-02-02T03:04:17.081Z,99563.06
2024-02-02T03:06:45.699Z,99554.22
2024-02-02T03:09:15.242Z,99571.63
2024-02-02T03:11:45.364Z,99570.34
2024-02-02T03:14:14.017Z,99562.31
2024-02-02T03:16:42.687Z,99551.53
2024-02-02T03:19:11.293Z,99540.41
2024-02-02T03:21:39.911Z,99532.81
2024-02-02T03:24:10.807Z,99534.06
2024-02-02T03:26:39.401Z,99528.00
2024-02-02T03:29:09.309Z,99532.38
2024-02-02T03:31:37.722Z,99538.75
2024-02-02T03:34:06.287Z,99535.34
2024-02-02T03:36:34.924Z,99530.09
2024-02-02T03:39:03.495Z,99527.69
2024-02-02T03:41:32.035Z,99533.66
2024-02-02T03:44:00.530Z,99534.13
2024-02-02T03:46:30.357Z,99543.91
2024-02-02T03:49:00.559Z,99537.19
2024-02-02T03:51:29.215Z,99535.41
2024-02-02T03:53:57.733Z,99529.91
2024-02-02T03:56:26.539Z,99526.38
2024-02-02T03:58:55.002Z,99521.69
2024-02-02T04:01:23.540Z,99518.34
2024-02-02T04:03:53.432Z,99515.28
2024-02-02T04:06:22.650Z,99513.56
2024-02-02T04:08:51.119Z,99514.06
2024-02-02T04:11:19.747Z,99525.13
2024-02-02T04:13:48.252Z,99518.03
2024-02-02T04:16:16.766Z,99512.94
2024-02-02T04:18:45.343Z,99527.03
2024-02-02T04:21:15.352Z,99524.25
2024-02-02T04:23:43.758Z,99514.75
2024-02-02T04:26:13.100Z,99515.59
2024-02-02T04:28:41.976Z,99529.91
2024-02-02T04:31:10.625Z,99522.19
2024-02-02T04:33:39.167Z,99527.88
2024-02-02T04:36:08.094Z,99530.56
2024-02-02T04:38:37.942Z,99551.75
2024-02-02T04:41:06.783Z,99551.94
2024-02-02T04:43:35.330Z,99556.09
2024-02-02T04:46:03.945Z,99545.66
2024-02-02T04:48:32.496Z,99544.44
2024-02-02T04:51:01.150Z,99541.31
2024-02-02T04:53:29.987Z,99554.03
2024-02-02T04:55:59.920Z,99552.38
2024-02-02T04:58:28.919Z,99551.06
2024-02-02T05:00:57.412Z,99539.06
2024-02-02T05:03:26.008Z,99538.56
2024-02-02T05:05:54.608Z,99538.88
2024-02-02T05:08:23.178Z,99554.06
2024-02-02T05:10:51.523Z,99553.97
2024-02-02T05:13:21.398Z,99549.53
2024-02-02T05:15:50.032Z,99554.06
2024-02-02T05:18:18.663Z,99558.19
2024-02-02T05:20:48.254Z,99562.34
2024-02-02T05:23:16.786Z,99556.34
2024-02-02T05:25:45.329Z,99554.28
2024-02-02T05:28:13.884Z,99562.97
2024-02-02T05:30:43.880Z,99560.41
2024-02-02T05:33:12.476Z,99567.94
2024-02-02T05:35:41.274Z,99561.13
2024-02-02T05:38:09.750Z,99570.19
2024-02-02T05:40:38.296Z,99570.19
2024-02-02T05:43:07.069Z,99567.31
2024-02-02T05:45:35.604Z,99561.31
2024-02-02T05:48:06.041Z,99555.25
2024-02-02T05:50:33.592Z,99548.94
2024-02-02T05:53:02.046Z,99551.41
2024-02-02T05:55:31.000Z,99554.94
2024-02-02T05:58:00.104Z,99555.56
2024-02-02T06:00:28.743Z,99541.50
2024-02-02T06:02:57.233Z,99554.34
2024-02-02T06:05:27.087Z,99554.13
2024-02-02T06:07:55.516Z,99546.50
2024-02-02T06:10:23.994Z,99556.19
2024-02-02T06:12:52.429Z,99557.13
2024-02-02T06:15:20.989Z,99550.28
2024-02-02T06:17:51.955Z,99543.38
2024-02-02T06:20:21.907Z,99548.44
2024-02-02T06:22:51.728Z,99541.09
2024-02-02T06:25:21.798Z,99534.09
2024-02-02T06:27:50.222Z,99524.97
2024-02-02T06:30:18.993Z,99519.81
2024-02-02T06:32:50.332Z,99521.97
2024-02-02T06:35:19.022Z,99527.13
2024-02-02T06:37:47.456Z,99530.22
2024-02-02T06:40:17.604Z,99536.13
2024-02-02T06:42:46.028Z,99535.28
2024-02-02T06:45:14.753Z,99536.63
2024-02-02T06:47:44.489Z,99525.75
2024-02-02T06:50:13.033Z,99531.13
2024-02-02T06:52:41.584Z,99540.53
2024-02-02T06:55:10.635Z,99541.25
2024-02-02T06:57:40.763Z,99551.41
2024-02-02T07:00:15.856Z,99558.41
2024-02-02T07:02:46.171Z,99560.06
2024-02-02T07:05:16.896Z,99563.97
2024-02-02T07:07:45.719Z,99563.34
2024-02-02T07:10:19.392Z,99565.16
2024-02-02T07:12:59.665Z,99562.50
2024-02-02T07:15:32.963Z,99558.25
2024-02-02T07:18:02.070Z,99558.38
2024-02-02T07:21:08.430Z,99565.81
2024-02-02T07:23:40.666Z,99569.34
2024-02-02T07:26:29.547Z,99573.75
2024-02-02T07:29:00.933Z,99567.88
2024-02-02T07:31:39.782Z,99583.88
2024-02-02T07:34:44.017Z,99577.16
2024-02-02T07:37:42.827Z,99583.78
2024-02-02T07:40:59.423Z,99590.28
2024-02-02T07:43:28.903Z,99583.38
2024-02-02T07:45:58.758Z,99575.56
2024-02-02T07:48:27.348Z,99565.72
2024-02-02T07:50:55.930Z,99569.78
2024-02-02T07:53:25.707Z,99568.84
2024-02-02T07:55:54.558Z,99573.53
2024-02-02T07:58:23.051Z,99567.31
2024-02-02T08:00:51.962Z,99570.03
2024-02-02T08:03:21.967Z,99564.25
2024-02-02T08:05:50.574Z,99561.56
2024-02-02T08:08:19.022Z,99566.31
2024-02-02T08:10:49.410Z,99560.75
2024-02-02T08:13:19.798Z,99570.88
2024-02-02T08:15:48.531Z,99567.78
2024-02-02T08:18:17.139Z,99569.00
2024-02-02T08:20:47.734Z,99561.78
2024-02-02T08:23:16.255Z,99564.03
2024-02-02T08:25:44.673Z,99564.47
2024-02-02T08:28:13.265Z,99557.22
2024-02-02T08:30:42.391Z,99560.50
2024-02-02T08:33:11.219Z,99565.50
2024-02-02T08:35:39.776Z,99566.72
2024-02-02T08:38:14.139Z,99568.34
2024-02-02T08:40:45.180Z,99566.06
2024-02-02T08:43:18.012Z,99547.75
2024-02-02T08:46:10.735Z,99549.06
2024-02-02T08:48:43.058Z,99542.88
2024-02-02T08:51:52.427Z,99539.16
2024-02-02T08:54:49.323Z,99536.34
2024-02-02T08:57:39.152Z,99527.31
2024-02-02T09:00:18.420Z,99525.44
2024-02-02T09:03:25.878Z,99521.06
2024-02-02T09:05:57.318Z,99528.50
2024-02-02T09:08:39.721Z,99530.88
2024-02-02T09:11:27.496Z,99538.41
2024-02-02T09:14:19.122Z,99537.41
2024-02-02T09:16:51.954Z,99531.16
2024-02-02T09:19:32.022Z,99539.63
2024-02-02T09:22:05.099Z,99534.13
2024-02-02T09:24:43.810Z,99533.00
2024-02-02T09:27:17.194Z,99541.34
2024-02-02T09:29:50.932Z,99539.81
2024-02-02T09:32:19.478Z,99547.97
2024-02-02T09:34:49.138Z,99540.91
2024-02-02T09:37:24.270Z,99544.00
2024-02-02T09:39:56.270Z,99544.72
2024-02-02T09:42:51.274Z,99544.38
2024-02-02T09:45:42.900Z,99542.16
2024-02-02T09:48:27.223Z,99541.72
2024-02-02T09:51:07.492Z,99551.00
2024-02-02T09:54:23.605Z,99553.97
2024-02-02T09:57:05.014Z,99553.78
2024-02-02T09:59:52.328Z,99551.78
2024-02-02T10:02:56.165Z,99543.66
2024-02-02T10:05:41.503Z,99537.44
2024-02-02T10:08:45.010Z,99550.03
2024-02-02T10:11:51.355Z,99545.22
2024-02-02T10:14:56.555Z,99539.59
2024-02-02T10:17:47.095Z,99551.34
2024-02-02T10:20:33.315Z,99550.09
2024-02-02T10:23:45.090Z,99550.44
2024-02-02T10:26:48.970Z,99548.22
2024-02-02T10:29:31.267Z,99560.84
2024-02-02T10:32:37.078Z,99556.13
2024-02-02T10:35:23.225Z,99551.41
2024-02-02T10:37:52.818Z,99558.97
2024-02-02T10:40:41.543Z,99549.03
2024-02-02T10:43:31.127Z,99550.47
2024-02-02T10:46:22.561Z,99533.72
2024-02-02T10:49:42.517Z,99542.00
2024-02-02T10:52:26.189Z,99531.13
2024-02-02T10:55:16.374Z,99536.91
2024-02-02T10:57:58.175Z,99530.78
2024-02-02T11:00:36.387Z,99526.28
2024-02-02T11:03:27.712Z,99520.59
2024-02-02T11:06:17.149Z,99544.53
2024-02-02T11:08:56.325Z,99532.31
2024-02-02T11:11:32.706Z,99522.53
2024-02-02T11:14:18.920Z,99526.41
2024-02-02T11:16:59.839Z,99523.31
2024-02-02T11:19:50.511Z,99512.81
2024-02-02T11:22:31.444Z,99511.75
2024-02-02T11:25:11.403Z,99512.06
2024-02-02T11:27:51.187Z,99503.34
2024-02-02T11:30:58.669Z,99499.41
2024-02-02T11:33:51.612Z,99490.69
2024-02-02T11:36:36.471Z,99499.06
2024-02-02T11:39:31.374Z,99497.03
2024-02-02T11:42:04.427Z,99485.31
2024-02-02T11:44:36.378Z,99493.81
2024-02-02T11:47:07.637Z,99494.41
2024-02-02T11:49:43.131Z,99492.22
2024-02-02T11:52:23.632Z,99497.06
2024-02-02T11:55:05.456Z,99488.91
2024-02-02T11:57:38.831Z,99491.94
2024-02-02T12:00:14.808Z,99488.13
2024-02-02T12:03:11.853Z,99479.25
2024-02-02T12:06:08.128Z,99482.44
2024-02-02T12:08:52.440Z,99478.38
2024-02-02T12:11:36.292Z,99478.38
2024-02-02T12:14:20.918Z,99479.75
2024-02-02T12:16:49.633Z,99487.31
2024-02-02T12:19:18.338Z,99482.94
2024-02-02T12:21:47.125Z,99483.91
2024-02-02T12:24:18.072Z,99487.03
2024-02-02T12:26:49.665Z,99480.22
2024-02-02T12:29:19.406Z,99484.22
2024-02-02T12:31:48.060Z,99461.25
2024-02-02T12:34:17.798Z,99469.97
2024-02-02T12:36:46.531Z,99464.97
2024-02-02T12:39:15.439Z,99458.56
2024-02-02T12:41:44.056Z,99451.44
2024-02-02T12:44:14.058Z,99440.78
2024-02-02T12:46:46.325Z,99453.56
2024-02-02T12:49:15.276Z,99443.72
2024-02-02T12:51:45.074Z,99445.91
2024-02-02T12:54:13.779Z,99447.28
2024-02-02T12:56:42.367Z,99443.03
2024-02-02T12:59:19.275Z,99449.50
2024-02-02T13:01:49.400Z,99437.47
2024-02-02T13:04:18.924Z,99434.75
2024-02-02T13:06:48.165Z,99435.16
2024-02-02T13:09:20.647Z,99434.09
2024-02-02T13:11:49.862Z,99423.03
2024-02-02T13:14:31.288Z,99431.22
2024-02-02T13:17:12.548Z,99413.56
2024-02-02T13:19:46.263Z,99408.78
2024-02-02T13:22:22.957Z,99412.34
2024-02-02T13:24:54.959Z,99409.63
2024-02-02T13:27:27.843Z,99407.84
2024-02-02T13:30:03.131Z,99397.28
2024-02-02T13:32:35.345Z,99394.28
2024-02-02T13:35:09.524Z,99397.03
2024-02-02T13:37:44.408Z,99378.53
2024-02-02T13:40:14.528Z,99375.63
2024-02-02T13:42:43.675Z,99364.94
2024-02-02T13:45:17.156Z,99362.88
2024-02-02T13:47:55.636Z,99356.84
2024-02-02T13:50:31.534Z,99358.22
2024-02-02T13:53:00.622Z,99344.91
2024-02-02T13:55:30.935Z,99342.72
2024-02-02T13:58:00.113Z,99345.06
2024-02-02T14:00:32.827Z,99342.16
2024-02-02T14:03:09.861Z,99345.44
2024-02-02T14:05:40.800Z,99338.91
2024-02-02T14:08:09.905Z,99336.28
2024-02-02T14:10:45.574Z,99337.78
2024-02-02T14:13:17.952Z,99341.88
2024-02-02T14:15:49.771Z,99357.81
2024-02-02T14:18:21.609Z,99350.94
2024-02-02T14:20:50.369Z,99354.63
2024-02-02T14:23:19.070Z,99359.16
2024-02-02T14:25:47.639Z,99347.66
2024-02-02T14:28:18.413Z,99346.72
2024-02-02T14:30:49.173Z,99342.84
2024-02-02T14:33:25.280Z,99338.56
2024-02-02T14:35:55.630Z,99342.16
2024-02-02T14:38:24.405Z,99343.53
2024-02-02T14:40:54.475Z,99355.47
2024-02-02T14:43:23.523Z,99354.75
2024-02-02T14:45:53.530Z,99353.72
2024-02-02T14:48:22.665Z,99348.50
2024-02-02T14:53:35.102Z,99343.53
2024-02-02T14:56:03.610Z,99336.50
2024-02-02T14:58:34.383Z,99346.28
2024-02-02T15:01:08.784Z,99338.16
2024-02-02T15:03:37.577Z,99350.38
2024-02-02T15:06:06.971Z,99328.84
2024-02-02T15:08:35.839Z,99333.53
2024-02-02T15:11:05.928Z,99322.41
2024-02-02T15:13:35.297Z,99316.41
2024-02-02T15:16:08.423Z,99310.91
2024-02-02T15:18:37.273Z,99313.63
2024-02-02T15:21:06.307Z,99310.34
2024-02-02T15:23:34.904Z,99306.09
2024-02-02T15:26:03.403Z,99306.09
2024-02-02T15:28:31.941Z,99309.25
2024-02-02T15:31:00.410Z,99307.59
2024-02-02T15:33:30.481Z,99320.50
2024-02-02T15:35:59.139Z,99321.44
2024-02-02T15:38:27.996Z,99325.72
2024-02-02T15:40:58.993Z,99312.81
2024-02-02T15:43:27.642Z,99315.28
2024-02-02T15:45:56.162Z,99324.75
2024-02-02T15:48:24.848Z,99327.63
2024-02-02T15:50:54.884Z,99338.31
2024-02-02T15:53:23.410Z,99324.63
2024-02-02T15:55:51.893Z,99322.69
2024-02-02T15:58:20.528Z,99323.50
2024-02-02T16:00:49.365Z,99320.78
2024-02-02T16:03:18.171Z,99322.97
2024-02-02T16:05:46.718Z,99320.53
2024-02-02T16:08:16.633Z,99323.53
2024-02-02T16:10:46.837Z,99327.09
2024-02-02T16:13:15.350Z,99320.50
2024-02-02T16:15:44.255Z,99309.31
2024-02-02T16:18:12.878Z,99302.44
2024-02-02T16:20:41.515Z,99311.47
2024-02-02T16:23:10.034Z,99309.72
2024-02-02T16:25:39.926Z,99316.97
2024-02-02T16:28:08.560Z,99307.66
2024-02-02T16:30:37.134Z,99320.41
2024-02-02T16:33:06.382Z,99325.75
2024-02-02T16:35:35.070Z,99320.81
2024-02-02T16:38:03.612Z,99313.16
2024-02-02T16:40:32.182Z,99308.91
2024-02-02T16:43:02.034Z,99307.94
2024-02-02T16:45:30.633Z,99306.28
2024-02-02T16:47:59.578Z,99310.81
2024-02-02T16:50:28.164Z,99304.09
2024-02-02T16:52:56.730Z,99301.66
2024-02-02T16:55:25.332Z,99302.59
2024-02-02T16:57:53.858Z,99302.06
2024-02-02T17:00:24.143Z,99307.38
2024-02-02T17:02:52.771Z,99309.31
2024-02-02T17:05:21.410Z,99306.84
2024-02-02T17:07:50.114Z,99300.41
2024-02-02T17:10:18.612Z,99310.66
2024-02-02T17:12:47.526Z,99318.75
2024-02-02T17:15:16.304Z,99310.13
2024-02-02T17:17:46.336Z,99316.72
2024-02-02T17:20:16.944Z,99300.53
2024-02-02T17:22:45.684Z,99314.50
2024-02-02T17:25:14.484Z,99314.50
2024-02-02T17:27:43.512Z,99324.66
2024-02-02T17:30:18.044Z,99326.84
2024-02-02T17:32:48.178Z,99319.59
2024-02-02T17:35:17.127Z,99317.25
2024-02-02T17:37:45.660Z,99310.13
2024-02-02T17:40:15.793Z,99320.25
2024-02-02T17:42:45.104Z,99327.13
2024-02-02T17:45:13.709Z,99332.84
2024-02-02T17:47:42.600Z,99334.22
2024-02-02T17:50:13.049Z,99341.19
2024-02-02T17:52:42.081Z,99351.75
2024-02-02T17:55:11.116Z,99342.44
2024-02-02T17:57:39.677Z,99352.16
2024-02-02T18:00:12.008Z,99347.78
2024-02-02T18:02:40.947Z,99341.06
2024-02-02T18:05:11.510Z,99336.69
2024-02-02T18:07:47.203Z,99335.88
2024-02-02T18:10:17.153Z,99331.34
2024-02-02T18:12:45.780Z,99334.75
2024-02-02T18:15:14.591Z,99326.97
2024-02-02T18:17:43.496Z,99324.75
2024-02-02T18:20:14.120Z,99323.81
2024-02-02T18:22:42.656Z,99330.38
2024-02-02T18:25:11.302Z,99319.16
2024-02-02T18:27:40.234Z,99312.84
2024-02-02T18:30:10.389Z,99318.22
2024-02-02T18:32:39.058Z,99314.06
2024-02-02T18:35:08.961Z,99307.38
2024-02-02T18:37:38.943Z,99307.66
2024-02-02T18:40:09.316Z,99294.75
2024-02-02T18:42:37.935Z,99300.22
2024-02-02T18:45:07.749Z,99305.59
2024-02-02T18:47:36.534Z,99303.81
2024-02-02T18:50:05.972Z,99303.81
2024-02-02T18:52:34.715Z,99305.16
2024-02-02T18:55:04.947Z,99310.38
2024-02-02T18:57:33.593Z,99303.66
2024-02-02T19:00:02.378Z,99297.25
2024-02-02T19:02:30.992Z,99291.91
2024-02-02T19:04:59.664Z,99277.09
2024-02-02T19:07:29.525Z,99289.31
2024-02-02T19:09:58.207Z,99272.44
2024-02-02T19:12:28.471Z,99267.25
2024-02-02T19:14:59.057Z,99265.06
2024-02-02T19:17:27.930Z,99270.41
2024-02-02T19:19:56.706Z,99277.25
2024-02-02T19:22:25.443Z,99276.44
2024-02-02T19:24:54.045Z,99273.81
2024-02-02T19:27:22.713Z,99272.22
2024-02-02T19:29:52.679Z,99276.56
2024-02-02T19:32:21.737Z,99274.81
2024-02-02T19:34:50.353Z,99286.16
2024-02-02T19:37:18.926Z,99280.00
2024-02-02T19:39:47.615Z,99286.56
2024-02-02T19:42:16.304Z,99283.69
2024-02-02T19:44:44.843Z,99282.19
2024-02-02T19:47:15.220Z,99267.66
2024-02-02T19:49:43.888Z,99274.25
2024-02-02T19:52:12.462Z,99270.66
2024-02-02T19:54:42.967Z,99282.72
2024-02-02T19:57:11.680Z,99280.13
2024-02-02T19:59:40.411Z,99284.38
2024-02-02T20:02:11.272Z,99281.63
2024-02-02T20:04:43.664Z,99295.34
2024-02-02T20:07:12.362Z,99291.78
2024-02-02T20:09:43.796Z,99288.47
2024-02-02T20:12:12.392Z,99290.13
2024-02-02T20:14:40.922Z,99289.03
2024-02-02T20:17:09.761Z,99296.84
2024-02-02T20:19:42.737Z,99295.91
2024-02-02T20:22:11.601Z,99300.28
2024-02-02T20:24:43.093Z,99302.47
2024-02-02T20:27:11.635Z,99300.81
2024-02-02T20:29:41.179Z,99298.88
2024-02-02T20:32:10.741Z,99286.03
2024-02-02T20:34:40.779Z,99288.22
2024-02-02T20:37:10.884Z,99283.16
2024-02-02T20:39:39.573Z,99288.47
2024-02-02T20:42:09.322Z,99284.94
2024-02-02T20:44:43.066Z,99289.19
2024-02-02T20:47:11.708Z,99292.47
2024-02-02T20:49:45.320Z,99291.09
2024-02-02T20:52:17.454Z,99308.63
2024-02-02T20:54:46.520Z,99307.97
2024-02-02T20:57:15.309Z,99313.16
2024-02-02T20:59:43.948Z,99303.44
2024-02-02T21:02:13.167Z,99309.56
2024-02-02T21:04:41.900Z,99313.84
2024-02-02T21:07:12.336Z,99312.88
2024-02-02T21:09:42.404Z,99321.63
2024-02-02T21:12:12.222Z,99321.63
2024-02-02T21:14:42.243Z,99330.94
2024-02-02T21:17:11.533Z,99333.56
2024-02-02T21:19:41.974Z,99328.91
2024-02-02T21:22:10.722Z,99329.06
2024-02-02T21:24:40.422Z,99333.97
2024-02-02T21:27:10.740Z,99331.66
2024-02-02T21:29:39.654Z,99324.78
2024-02-02T21:32:08.425Z,99323.13
2024-02-02T21:34:37.182Z,99321.38
2024-02-02T21:37:06.225Z,99320.00
2024-02-02T21:39:35.170Z,99325.19
2024-02-02T21:42:04.213Z,99319.31
2024-02-02T21:44:36.821Z,99307.53
2024-02-02T21:47:05.808Z,99308.91
2024-02-02T21:49:34.582Z,99306.56
2024-02-02T21:52:03.429Z,99315.34
2024-02-02T21:54:32.163Z,99317.00
2024-02-02T21:57:00.717Z,99320.53
2024-02-02T21:59:29.361Z,99322.75
2024-02-02T22:01:59.264Z,99323.56
2024-02-02T22:04:27.902Z,99330.94
2024-02-02T22:06:56.524Z,99330.00
2024-02-02T22:09:25.231Z,99330.66
2024-02-02T22:11:53.966Z,99334.94
2024-02-02T22:14:23.902Z,99332.59
2024-02-02T22:16:52.461Z,99342.03
2024-02-02T22:19:22.709Z,99330.66
2024-02-02T22:21:51.796Z,99322.19
2024-02-02T22:24:22.060Z,99322.97
2024-02-02T22:26:50.738Z,99325.31
2024-02-02T22:29:20.529Z,99325.75
2024-02-02T22:31:49.245Z,99322.72
2024-02-02T22:34:17.925Z,99320.09
2024-02-02T22:36:48.081Z,99322.47
2024-02-02T22:39:16.927Z,99326.03
2024-02-02T22:41:45.431Z,99325.19
2024-02-02T22:44:13.979Z,99326.97
2024-02-02T22:46:42.498Z,99331.91
2024-02-02T22:49:11.187Z,99333.94
2024-02-02T22:51:47.868Z,99333.94
2024-02-02T22:54:16.888Z,99334.78
2024-02-02T22:56:45.995Z,99326.00
2024-02-02T22:59:14.582Z,99334.38
2024-02-02T23:01:43.331Z,99336.13
2024-02-02T23:04:12.358Z,99335.97
2024-02-02T23:06:41.126Z,99337.75
2024-02-02T23:09:12.053Z,99344.34
2024-02-02T23:11:40.602Z,99352.69
2024-02-02T23:14:09.072Z,99356.25
2024-02-02T23:16:37.733Z,99353.63
2024-02-02T23:19:06.374Z,99352.41
2024-02-02T23:21:35.222Z,99347.22
2024-02-02T23:24:03.747Z,99343.66
2024-02-02T23:26:33.929Z,99348.03
2024-02-02T23:29:03.098Z,99352.41
2024-02-02T23:31:31.775Z,99354.19
2024-02-02T23:34:01.025Z,99353.81
2024-02-02T23:36:29.654Z,99349.28
2024-02-02T23:38:58.210Z,99344.63
2024-02-02T23:41:26.779Z,99344.34
2024-02-02T23:43:56.782Z,99339.41
2024-02-02T23:46:25.384Z,99339.41
2024-02-02T23:48:53.966Z,99331.34
2024-02-02T23:51:22.657Z,99327.22
2024-02-02T23:53:51.131Z,99325.47
2024-02-02T23:56:19.803Z,99340.78
2024-02-02T23:58:48.312Z,99338.88
